Language selection

Weather shortcuts

Arviat - western half: Past 24 Hour Conditions

 

Arviat Airport

09:00 AM CST 28 February 2024
Disclaimer

This table is a summary of hourly weather conditions for the past 24 hours.
Please note that these observations might not always be representative of weather conditions over their associated marine area.

Date / Time
(CST)
Wind(knots) Conditions Visibility(km) Pressure(kPa) Air tempC) Relative humidity(%) Dew pointC) Wind Chill
28 February 2024
9:00 NW 12 Ice Crystals 24 101.7 -37 63 -41 -52
8:00 NW 13 Ice Crystals 24 101.7 -37 63 -42 -53
7:00 NW 13 Ice Crystals 24 101.6 -37 63 -41 -53
6:00 NW 15 Clear 16 101.6 -37 64 -41 -54
5:00 NNW 14 Clear 16 101.6 -37 64 -41 -53
4:00 NNW 12 Clear 16 101.6 -37 64 -41 -52
3:00 NNW 15 Clear 16 101.6 -36 64 -41 -53
2:00 NNW 14 Clear 16 101.6 -36 65 -40 -52
1:00 NNW 17 Haze 5 101.6 -35 65 -40 -53
0:00 NNW 16 Haze 8 101.6 -35 66 -39 -52
27 February 2024
23:00 NNW 17 Haze 6 101.5 -35 66 -39 -52
22:00 NNW 16 gusts 21 Haze 5 101.6 -34 67 -38 -51
21:00 NNW 19 Haze 4 101.6 -34 67 -38 -52
20:00 NNW 17 Haze 5 101.6 -34 68 -37 -51
19:00 NNW 18 Haze 4 101.6 -33 68 -37 -50
18:00 NNW 18 gusts 23 Light Snow 2 101.5 -33 69 -37 -50
17:00 NW 20 Blowing Snow 1 101.5 -32 69 -36 -50
16:00 NW 18 Blowing Snow 1 101.4 -32 68 -36 -49
15:00 NW 21 Blowing Snow 0.8 101.4 -32 68 -36 -50
14:00 NW 23 Blowing Snow 0.8 101.3 -32 68 -36 -50
13:00 NW 22 gusts 28 Blowing Snow 0.8 101.3 -32 67 -36 -50
12:00 NW 22 gusts 28 Blowing Snow 0.8 101.3 -33 68 -36 -51
11:00 NNW 20 gusts 27 Blowing Snow 0.8 101.3 -32 69 -36 -50
10:00 NNW 23 Blowing Snow 0.8 101.2 -32 69 -36 -51
9:00 NNW 24 Blowing Snow 0.8 101.1 -33 69 -36 -52

Zoom-in to make a selection

Map of Hudson - Hudson Bay marine weather areas Arviat Airport Baker Lake Airport Chesterfield Inlet Airport Coral Harbour Airport Rankin Inlet Airport Sanikiluaq Airport Whale Cove Airport Kinngait (Cape Dorset Airport) Iqaluit Airport Wager Bay Kimmirut Airport Churchill Airport Fort Severn Airport Peawanuck Airport Moosonee Airport Eastmain Airport La Grande Rivière Airport Waskaganish Airport Wemindji Airport Akulivik Airport Inukjuak Airport Ivujivik Airport Kuujjuarapik Airport Puvirnituq Airport Umiujaq Airport Aupaluk Airport Kangiqsujuaq Airport Kangirsuk Airport Kangiqsualujjuaq Airport Kuujjuaq Airport Quaqtaq Airport Salluit Airport Tasiujaq Airport Cape Kakkiviak
Legend:
buoy Buoy
land station Land Station

Hudson - Hudson Bay Area

Another Region

Date modified: